Terminal Aerodrome Forecast
Issued by NWS

Home | Current Version | Previous Version | Graphics & Text | Print | Product List | Glossary On
Versions: 1 2 3 4 5 6 7 8 9 10 11 12 13 14 15 16 17 18 19 20 21 22 23
272
FTUS43 KICT 301135
TAFRSL
TAF
KRSL 301135Z 3012/3112 15007KT P6SM VCTS SCT070CB BKN100
     FM301400 15009KT P6SM SCT080
     FM301800 15009KT P6SM SCT040 OVC080
     FM302100 15013KT P6SM BKN100=

USA.gov is the U.S. government's official web portal to all federal, state and local government web resources and services.